Tharptown, Pennsylvania
Current Conditions -  °F | °C
As of 4:53 PM on Friday 31 Oct 2014 (Local Time) from KSEG Reporting Station
Overcast Overcast  
Wind Chill: 51°   Ceiling: 6000
Heat Index: 51°   Visibility: 10mi
Dew Point: 35°   Wind: 3mph
Humidity: 54%   Direction: 320°NW
Pressure: 29.88"   Gusts: NA
Location:  40.7842°N, 76.5797°W
Report Text: KSEG 312053Z AUTO 32003KT 10SM OVC060 11/02 A2988 RMK AO2 SLP122 T01060017 56014
Loading
Personal Weather Stations






























Interactive Weather Map
Tropical Storm Tracking
New forecast layout! Learn more

10-Day Weather Forecast

Advertisements
Track Severe Weather on mobile